Time;durP1;ratioP1;P1;durP2;ratioP2;P2;SDS_P1;SDS_P2;PMS_P1;PMS_P2;Temp;Humidity;BMP_temperature;BMP_pressure;BME280_temperature;BME280_humidity;BME280_pressure;Samples;Min_cycle;Max_cycle;Signal;HPM_P1;HPM_P2
2024/01/28 00:00:58;;;;;;;30.63;12.73;;;2.00;99.90;;;;;;5062446;28;37747;-82
2024/01/28 00:03:24;;;;;;;27.63;13.13;;;2.00;99.90;;;;;;5046111;28;38108;-80
2024/01/28 00:05:51;;;;;;;26.53;12.97;;;2.00;99.90;;;;;;5059320;28;39574;-80
2024/01/28 00:08:18;;;;;;;31.63;12.63;;;1.90;99.90;;;;;;5057320;28;37556;-82
2024/01/28 00:10:44;;;;;;;30.93;12.97;;;1.90;99.90;;;;;;5038201;28;39042;-80
2024/01/28 00:13:12;;;;;;;33.23;12.83;;;1.90;99.90;;;;;;5044447;28;20045;-81
2024/01/28 00:15:38;;;;;;;23.60;11.53;;;1.90;99.90;;;;;;5053642;28;38151;-80
2024/01/28 00:18:04;;;;;;;33.13;13.30;;;1.90;99.90;;;;;;5042106;28;36071;-80
2024/01/28 00:20:31;;;;;;;29.80;12.87;;;1.80;99.90;;;;;;5052432;28;37701;-81
2024/01/28 00:22:57;;;;;;;29.77;13.97;;;1.80;99.90;;;;;;5039523;28;37767;-81
2024/01/28 00:25:29;;;;;;;28.03;13.80;;;1.70;99.90;;;;;;5043641;28;38689;-80
2024/01/28 00:27:55;;;;;;;37.28;16.20;;;1.60;99.90;;;;;;5062501;28;37928;-80
2024/01/28 00:30:24;;;;;;;33.67;12.57;;;1.60;99.90;;;;;;5050418;28;38111;-79
2024/01/28 00:32:50;;;;;;;22.67;13.23;;;1.50;99.90;;;;;;5058350;28;38261;-81
2024/01/28 00:35:18;;;;;;;30.53;13.63;;;1.50;99.90;;;;;;5054672;28;37665;-81
2024/01/28 00:37:46;;;;;;;22.53;11.70;;;1.40;99.90;;;;;;5058133;28;37794;-80
2024/01/28 00:40:15;;;;;;;25.33;14.03;;;1.30;99.90;;;;;;5055553;28;38631;-81
2024/01/28 00:42:50;;;;;;;21.57;10.57;;;1.30;99.90;;;;;;5060994;28;38583;-81
2024/01/28 00:45:19;;;;;;;28.50;12.50;;;1.20;99.90;;;;;;5045266;28;39035;-80
2024/01/28 00:47:45;;;;;;;28.43;13.50;;;1.20;99.90;;;;;;5046754;28;37511;-80
2024/01/28 00:50:14;;;;;;;28.30;12.93;;;1.10;99.90;;;;;;5055423;28;38358;-82
2024/01/28 00:52:44;;;;;;;26.40;12.57;;;1.10;99.90;;;;;;5045324;28;39910;-81
2024/01/28 00:55:28;;;;;;;30.57;13.87;;;1.00;99.90;;;;;;5019668;28;38350;-81
2024/01/28 00:57:58;;;;;;;25.47;12.80;;;1.00;99.90;;;;;;5047609;28;37661;-82
2024/01/28 01:00:46;;;;;;;26.23;13.83;;;1.00;99.90;;;;;;5049450;28;39603;-82
2024/01/28 01:03:16;;;;;;;28.70;13.43;;;1.00;99.90;;;;;;5043239;28;38426;-82
2024/01/28 01:05:46;;;;;;;31.43;13.07;;;0.90;99.90;;;;;;5030548;28;38157;-83
2024/01/28 01:08:24;;;;;;;38.17;16.03;;;0.90;99.90;;;;;;5057043;28;38694;-82
2024/01/28 01:10:55;;;;;;;24.53;13.90;;;0.80;99.90;;;;;;5056368;28;40342;-82
2024/01/28 01:13:35;;;;;;;28.73;14.87;;;0.80;99.90;;;;;;5057169;28;39617;-83
2024/01/28 01:16:02;;;;;;;28.53;14.17;;;0.80;99.90;;;;;;5040361;28;36954;-83
2024/01/28 01:18:30;;;;;;;29.77;16.23;;;0.90;99.90;;;;;;5062733;28;38799;-83
2024/01/28 01:20:59;;;;;;;29.77;14.40;;;0.80;99.90;;;;;;5042715;28;38909;-83
2024/01/28 01:23:51;;;;;;;32.30;15.67;;;0.90;99.90;;;;;;5026953;23;38369;-81
2024/01/28 01:26:52;;;;;;;25.00;13.53;;;1.00;99.90;;;;;;5010235;28;49332;-81
2024/01/28 01:29:22;;;;;;;26.23;14.10;;;0.90;99.90;;;;;;5026927;28;38787;-82
2024/01/28 01:32:04;;;;;;;33.33;14.60;;;0.80;99.90;;;;;;5035276;28;38151;-81
2024/01/28 01:34:35;;;;;;;26.90;14.67;;;0.80;99.90;;;;;;5028482;28;50356;-82
2024/01/28 01:37:23;;;;;;;21.27;11.82;;;0.70;99.90;;;;;;4999887;28;38152;-82
2024/01/28 01:39:53;;;;;;;31.27;14.90;;;0.70;99.90;;;;;;5011699;28;37665;-81
2024/01/28 01:42:24;;;;;;;27.30;13.67;;;0.60;99.90;;;;;;4999810;28;39058;-81
2024/01/28 01:44:57;;;;;;;23.43;13.00;;;0.60;99.90;;;;;;5012243;28;39365;-81
2024/01/28 01:47:29;;;;;;;24.90;13.83;;;0.50;99.90;;;;;;5011727;28;38549;-81
2024/01/28 01:49:59;;;;;;;30.60;15.35;;;0.50;99.90;;;;;;4998852;28;38294;-81
2024/01/28 01:52:39;;;;;;;29.93;15.10;;;0.50;99.90;;;;;;5005527;28;39478;-82
2024/01/28 01:55:18;;;;;;;30.27;15.00;;;0.40;99.90;;;;;;4980610;28;39056;-81
2024/01/28 01:58:07;;;;;;;24.70;13.40;;;0.40;99.90;;;;;;4988030;28;49693;-82
2024/01/28 02:03:17;;;;;;;26.07;15.07;;;0.50;99.90;;;;;;5243487;22;20093;-80
2024/01/28 02:05:46;;;;;;;38.40;17.90;;;0.50;99.90;;;;;;5042080;28;38058;-80
2024/01/28 02:08:12;;;;;;;26.17;15.53;;;0.50;99.90;;;;;;5027703;28;36524;-81
2024/01/28 02:10:38;;;;;;;34.07;17.07;;;0.40;99.90;;;;;;5041483;28;39969;-80
2024/01/28 02:13:05;;;;;;;33.30;15.63;;;0.50;99.90;;;;;;5020299;28;37763;-80
2024/01/28 02:15:38;;;;;;;22.60;15.70;;;0.40;99.90;;;;;;5013718;28;38097;-80
2024/01/28 02:18:05;;;;;;;31.97;15.10;;;0.40;99.90;;;;;;5016532;28;37193;-81
2024/01/28 02:20:32;;;;;;;29.87;14.70;;;0.50;99.90;;;;;;5029176;28;36267;-80
2024/01/28 02:22:58;;;;;;;28.23;16.87;;;0.50;99.90;;;;;;5014580;28;38494;-81
2024/01/28 02:25:31;;;;;;;38.27;16.77;;;0.50;99.90;;;;;;5017544;28;38379;-80
2024/01/28 02:27:58;;;;;;;24.33;14.20;;;0.50;99.90;;;;;;5020313;28;35423;-81
2024/01/28 02:30:24;;;;;;;26.10;14.73;;;0.50;99.90;;;;;;5035746;28;37910;-80
2024/01/28 02:32:52;;;;;;;26.20;13.63;;;0.40;99.90;;;;;;5023730;28;39276;-80
2024/01/28 02:35:19;;;;;;;25.20;13.27;;;0.40;99.90;;;;;;5020468;28;37619;-81
2024/01/28 02:37:45;;;;;;;31.03;15.73;;;0.40;99.90;;;;;;5026538;28;37975;-80
2024/01/28 02:40:12;;;;;;;29.57;14.20;;;0.40;99.90;;;;;;5020798;28;37617;-80
2024/01/28 02:42:41;;;;;;;25.20;13.50;;;0.40;99.90;;;;;;5021275;28;38224;-80
2024/01/28 02:45:08;;;;;;;30.27;15.77;;;0.40;99.90;;;;;;5021217;28;37738;-81
2024/01/28 02:47:34;;;;;;;27.77;14.47;;;0.30;99.90;;;;;;5022196;28;37194;-80
2024/01/28 02:50:01;;;;;;;28.33;14.23;;;0.30;99.90;;;;;;5026375;28;36471;-80
2024/01/28 02:52:27;;;;;;;26.90;13.97;;;0.30;99.90;;;;;;5013574;28;38234;-80
2024/01/28 02:54:53;;;;;;;30.43;14.70;;;0.30;99.90;;;;;;5045336;28;39346;-80
2024/01/28 02:57:20;;;;;;;28.60;15.27;;;0.30;99.90;;;;;;5040045;28;39435;-80
2024/01/28 02:59:46;;;;;;;22.77;13.73;;;0.40;99.90;;;;;;5027312;28;36466;-80
2024/01/28 03:02:12;;;;;;;28.37;12.90;;;0.20;99.90;;;;;;5042977;28;39527;-80
2024/01/28 03:04:39;;;;;;;26.47;13.73;;;0.20;99.90;;;;;;5030902;28;37519;-81
2024/01/28 03:07:07;;;;;;;25.70;12.10;;;0.20;99.90;;;;;;5024948;28;37568;-80
2024/01/28 03:09:35;;;;;;;30.20;13.53;;;0.20;99.90;;;;;;5042419;28;38036;-80
2024/01/28 03:12:01;;;;;;;30.50;12.73;;;0.30;99.90;;;;;;5029023;28;39413;-80
2024/01/28 03:14:27;;;;;;;29.33;13.50;;;0.20;99.90;;;;;;5041988;28;48796;-80
2024/01/28 03:16:53;;;;;;;22.63;13.03;;;0.20;99.90;;;;;;5024941;28;39092;-80
2024/01/28 03:19:20;;;;;;;24.47;13.00;;;0.20;99.90;;;;;;5021599;28;36392;-80
2024/01/28 03:21:46;;;;;;;25.60;12.53;;;0.10;99.90;;;;;;5036104;28;38432;-80
2024/01/28 03:24:13;;;;;;;25.20;12.00;;;0.10;99.90;;;;;;5025954;28;38802;-80
2024/01/28 03:26:39;;;;;;;31.40;13.80;;;0.00;99.90;;;;;;5000178;28;38240;-80
2024/01/28 03:29:06;;;;;;;29.20;12.90;;;0.00;99.90;;;;;;5027251;28;36979;-79
2024/01/28 03:31:32;;;;;;;23.10;14.20;;;-0.10;99.90;;;;;;5030485;28;39722;-82
2024/01/28 03:33:58;;;;;;;24.77;12.27;;;-0.10;99.90;;;;;;5031405;28;38935;-80
2024/01/28 03:36:25;;;;;;;20.93;12.33;;;-0.10;99.90;;;;;;5044799;28;38522;-80
2024/01/28 03:38:53;;;;;;;22.47;12.97;;;-0.10;99.90;;;;;;5025394;28;37521;-80
2024/01/28 03:41:19;;;;;;;25.60;14.80;;;-0.10;99.90;;;;;;5048357;28;41573;-80
2024/01/28 03:43:48;;;;;;;23.03;12.07;;;-0.10;99.90;;;;;;5040568;28;38529;-80
2024/01/28 03:46:15;;;;;;;25.27;12.17;;;-0.10;99.90;;;;;;5041209;28;38206;-80
2024/01/28 03:48:41;;;;;;;27.00;12.37;;;0.00;99.90;;;;;;5028465;28;38482;-80
2024/01/28 03:51:13;;;;;;;24.27;12.50;;;0.00;99.90;;;;;;5027049;28;38820;-80
2024/01/28 03:53:41;;;;;;;;;;;0.00;99.90;;;;;;5034058;28;39123;-80
2024/01/28 03:56:17;;;;;;;31.40;12.27;;;-0.10;99.90;;;;;;5031551;28;37975;-80
2024/01/28 03:58:44;;;;;;;28.03;13.73;;;-0.10;99.90;;;;;;5045173;28;37023;-80
2024/01/28 04:01:12;;;;;;;23.40;12.67;;;-0.10;99.90;;;;;;5035452;28;39498;-80
2024/01/28 04:03:39;;;;;;;26.70;13.60;;;-0.10;99.90;;;;;;5025969;28;38098;-80
2024/01/28 04:06:06;;;;;;;27.93;12.57;;;-0.10;99.90;;;;;;5042730;28;38394;-79
2024/01/28 04:08:32;;;;;;;26.93;13.67;;;-0.10;99.90;;;;;;5044648;28;37774;-79
2024/01/28 04:10:58;;;;;;;22.80;12.37;;;-0.10;99.90;;;;;;5022492;28;37954;-80
2024/01/28 04:13:24;;;;;;;22.03;12.37;;;-0.10;99.90;;;;;;5029774;28;37635;-80
2024/01/28 04:15:50;;;;;;;25.30;12.27;;;-0.10;99.90;;;;;;5019507;28;38613;-80
2024/01/28 04:18:18;;;;;;;26.30;12.70;;;-0.20;99.90;;;;;;5033333;28;38291;-80
2024/01/28 04:20:45;;;;;;;22.83;12.57;;;-0.20;99.90;;;;;;5050972;28;39981;-81
2024/01/28 04:23:20;;;;;;;22.73;11.47;;;-0.10;99.90;;;;;;5046647;28;39998;-80
2024/01/28 04:25:48;;;;;;;22.87;11.83;;;-0.20;99.90;;;;;;5015658;28;37297;-80
2024/01/28 04:28:15;;;;;;;27.60;13.07;;;-0.20;99.90;;;;;;5021823;28;35377;-81
2024/01/28 04:30:42;;;;;;;33.27;13.03;;;-0.20;99.90;;;;;;5036594;28;39396;-79
2024/01/28 04:33:08;;;;;;;22.77;12.67;;;-0.20;99.90;;;;;;5044337;28;39514;-79
2024/01/28 04:35:34;;;;;;;26.13;12.33;;;-0.20;99.90;;;;;;5022869;28;39039;-80
2024/01/28 04:38:00;;;;;;;26.40;13.23;;;-0.20;99.90;;;;;;5026439;28;37961;-79
2024/01/28 04:40:27;;;;;;;30.87;13.47;;;-0.20;99.90;;;;;;5011959;28;39162;-78
2024/01/28 04:42:53;;;;;;;23.03;11.70;;;-0.20;99.90;;;;;;5028146;28;38231;-79
2024/01/28 04:45:19;;;;;;;21.13;11.80;;;-0.20;99.90;;;;;;5012565;28;36873;-79
2024/01/28 04:47:51;;;;;;;27.13;11.70;;;-0.10;99.90;;;;;;5020386;28;36272;-80
2024/01/28 04:50:17;;;;;;;25.03;12.87;;;-0.20;99.90;;;;;;5031318;28;38997;-80
2024/01/28 04:52:43;;;;;;;24.23;11.73;;;-0.20;99.90;;;;;;5031323;28;38858;-80
2024/01/28 04:55:12;;;;;;;34.57;15.03;;;-0.10;99.90;;;;;;5022606;28;38491;-80
2024/01/28 04:57:38;;;;;;;21.83;11.83;;;-0.20;99.90;;;;;;5011332;28;37793;-80
2024/01/28 05:00:10;;;;;;;25.37;12.50;;;-0.10;99.90;;;;;;5021875;28;38103;-80
2024/01/28 05:02:37;;;;;;;25.23;11.83;;;0.00;99.90;;;;;;5029901;28;38576;-81
2024/01/28 05:05:04;;;;;;;27.63;11.93;;;0.00;99.90;;;;;;5031076;28;38326;-79
2024/01/28 05:07:30;;;;;;;26.20;12.53;;;0.10;99.90;;;;;;5032550;28;38290;-80
2024/01/28 05:09:57;;;;;;;25.20;12.80;;;0.20;99.90;;;;;;5012628;28;37618;-80
2024/01/28 05:12:23;;;;;;;24.97;12.23;;;0.30;99.90;;;;;;5037094;28;38302;-79
2024/01/28 05:14:50;;;;;;;24.50;12.93;;;0.40;99.90;;;;;;5020753;28;39039;-79
2024/01/28 05:17:17;;;;;;;30.53;12.87;;;0.40;99.90;;;;;;5026160;28;36153;-80
2024/01/28 05:19:43;;;;;;;29.50;12.27;;;0.40;99.90;;;;;;5017599;28;38037;-81
2024/01/28 05:22:09;;;;;;;22.20;11.27;;;0.40;99.90;;;;;;5022359;28;38875;-80
2024/01/28 05:24:36;;;;;;;23.67;11.50;;;0.50;99.90;;;;;;5031222;28;37943;-78
2024/01/28 05:27:02;;;;;;;19.73;10.23;;;0.60;99.90;;;;;;5024331;28;38419;-80
2024/01/28 05:29:28;;;;;;;17.63;9.50;;;0.60;99.90;;;;;;5026832;28;39132;-81
2024/01/28 05:31:55;;;;;;;22.90;10.50;;;0.60;99.90;;;;;;5018835;28;37509;-80
2024/01/28 05:34:21;;;;;;;20.30;10.10;;;0.60;99.90;;;;;;5019133;28;36984;-80
2024/01/28 05:36:50;;;;;;;21.67;10.13;;;0.60;99.90;;;;;;5020270;28;37517;-80
2024/01/28 05:39:17;;;;;;;19.33;9.07;;;0.70;99.90;;;;;;5015386;28;38584;-79
2024/01/28 05:41:44;;;;;;;15.90;9.00;;;0.70;99.90;;;;;;5015810;28;37507;-80
2024/01/28 05:44:10;;;;;;;17.40;8.30;;;0.70;99.90;;;;;;5017218;28;37043;-80
2024/01/28 05:46:40;;;;;;;23.23;8.33;;;0.70;99.90;;;;;;5013887;28;39290;-79
2024/01/28 05:49:08;;;;;;;16.87;8.13;;;0.80;99.90;;;;;;5013689;28;37954;-79
2024/01/28 05:51:38;;;;;;;21.10;8.30;;;0.90;99.90;;;;;;5036087;28;39124;-80
2024/01/28 05:54:06;;;;;;;24.30;9.63;;;0.90;99.90;;;;;;5009886;28;37370;-80
2024/01/28 05:56:32;;;;;;;25.87;9.47;;;1.00;99.90;;;;;;5034696;28;37780;-80
2024/01/28 05:58:58;;;;;;;21.63;8.73;;;1.00;99.90;;;;;;5018915;28;38103;-80
2024/01/28 06:01:24;;;;;;;16.43;8.63;;;1.10;99.90;;;;;;5019194;28;38115;-79
2024/01/28 06:03:51;;;;;;;24.97;8.97;;;1.10;99.90;;;;;;5017749;28;37625;-78
2024/01/28 06:06:17;;;;;;;18.10;7.77;;;1.20;99.90;;;;;;5041685;28;37884;-80
2024/01/28 06:08:43;;;;;;;19.10;7.90;;;1.20;99.90;;;;;;5024471;28;38197;-80
2024/01/28 06:11:09;;;;;;;19.50;8.30;;;1.20;99.90;;;;;;5020854;28;37714;-79
2024/01/28 06:13:36;;;;;;;16.07;9.03;;;1.10;99.90;;;;;;5019507;28;36973;-79
2024/01/28 06:16:03;;;;;;;19.80;7.70;;;1.10;99.90;;;;;;5022509;28;37850;-79
2024/01/28 06:18:29;;;;;;;15.03;7.33;;;1.10;99.90;;;;;;5035626;28;38517;-79
2024/01/28 06:20:58;;;;;;;17.23;7.73;;;1.10;99.90;;;;;;5026125;28;36897;-81
2024/01/28 06:23:25;;;;;;;14.40;8.23;;;1.00;99.90;;;;;;5009476;28;36791;-80
2024/01/28 06:25:51;;;;;;;16.93;7.67;;;1.00;99.90;;;;;;5029172;28;37527;-79
2024/01/28 06:28:18;;;;;;;17.73;7.63;;;1.00;99.90;;;;;;5032038;28;39078;-80
2024/01/28 06:30:44;;;;;;;21.97;7.67;;;0.90;99.90;;;;;;5030976;28;40006;-80
2024/01/28 06:33:11;;;;;;;16.43;7.30;;;0.90;99.90;;;;;;5017258;28;36491;-79
2024/01/28 06:35:40;;;;;;;14.47;7.83;;;0.90;99.90;;;;;;5025833;28;36602;-79
2024/01/28 06:38:06;;;;;;;16.50;7.37;;;0.90;99.90;;;;;;5031301;28;38852;-78
2024/01/28 06:40:32;;;;;;;13.97;7.57;;;0.90;99.90;;;;;;5007566;28;37675;-80
2024/01/28 06:42:58;;;;;;;12.63;7.40;;;0.90;99.90;;;;;;5021762;28;37166;-80
2024/01/28 06:45:25;;;;;;;18.97;7.70;;;1.00;99.90;;;;;;5023200;28;35990;-80
2024/01/28 06:47:51;;;;;;;17.13;8.07;;;0.90;99.90;;;;;;5014764;28;39737;-78
2024/01/28 06:50:17;;;;;;;17.40;7.40;;;1.00;99.90;;;;;;5023529;28;38628;-78
2024/01/28 06:52:43;;;;;;;21.90;8.00;;;1.00;99.90;;;;;;5010251;28;37262;-78
2024/01/28 06:55:09;;;;;;;16.17;8.07;;;1.00;99.90;;;;;;5016053;28;36084;-78
2024/01/28 06:57:36;;;;;;;15.03;7.03;;;0.90;99.90;;;;;;5000592;28;37970;-77
2024/01/28 07:00:04;;;;;;;16.87;7.73;;;1.00;99.90;;;;;;5004039;28;38716;-78
2024/01/28 07:02:31;;;;;;;16.30;6.70;;;0.90;99.90;;;;;;5025187;28;37834;-78
2024/01/28 07:04:57;;;;;;;22.23;7.40;;;0.90;99.90;;;;;;5012286;28;36102;-78
2024/01/28 07:07:23;;;;;;;16.90;7.03;;;1.00;99.90;;;;;;5030832;28;38634;-79
2024/01/28 07:09:58;;;;;;;15.20;7.70;;;1.00;99.90;;;;;;5028406;28;37355;-81
2024/01/28 07:12:25;;;;;;;15.07;6.70;;;1.00;99.90;;;;;;5008047;28;38432;-77
2024/01/28 07:14:51;;;;;;;17.57;6.67;;;1.00;99.90;;;;;;5020213;28;37630;-78
2024/01/28 07:17:20;;;;;;;17.00;7.30;;;1.00;99.90;;;;;;4999937;28;40245;-76
2024/01/28 07:19:52;;;;;;;12.63;6.77;;;1.00;99.90;;;;;;5007653;28;37833;-79
2024/01/28 07:22:19;;;;;;;18.95;6.25;;;1.00;99.90;;;;;;4995206;28;38103;-78
2024/01/28 07:24:45;;;;;;;12.70;6.40;;;1.10;99.90;;;;;;5013503;28;37184;-76
2024/01/28 07:27:11;;;;;;;14.40;6.67;;;1.10;99.90;;;;;;5013481;28;37806;-81
2024/01/28 07:29:41;;;;;;;17.30;6.67;;;1.10;99.90;;;;;;5006678;28;37306;-79
2024/01/28 07:32:08;;;;;;;16.10;6.90;;;1.10;99.90;;;;;;4998567;28;38558;-78
2024/01/28 07:35:30;;;;;;;13.77;5.93;;;1.10;99.90;;;;;;5035653;28;37142;-83
2024/01/28 07:38:03;;;;;;;15.20;6.30;;;1.20;99.90;;;;;;4981396;28;48826;-82
2024/01/28 07:43:11;;;;;;;15.23;6.40;;;1.10;99.90;;;;;;5035089;28;20030;-81
2024/01/28 07:45:37;;;;;;;17.95;6.32;;;1.20;99.90;;;;;;4991290;28;38546;-78
2024/01/28 07:48:06;;;;;;;15.97;5.60;;;1.20;99.90;;;;;;4986331;28;39561;-80
2024/01/28 07:50:35;;;;;;;17.27;6.50;;;1.30;99.90;;;;;;5015519;28;39157;-79
2024/01/28 07:53:01;;;;;;;20.00;6.30;;;1.30;99.90;;;;;;5014241;28;36916;-80
2024/01/28 07:55:28;;;;;;;20.33;6.77;;;1.30;99.90;;;;;;4994589;28;47215;-80
2024/01/28 07:58:03;;;;;;;14.07;6.63;;;1.30;99.90;;;;;;4989823;28;38129;-80
2024/01/28 08:00:29;;;;;;;16.40;8.03;;;1.30;99.90;;;;;;5002013;28;47779;-80
2024/01/28 08:06:25;;;;;;;19.43;6.33;;;1.30;99.90;;;;;;4992628;28;50843;-75
2024/01/28 08:08:52;;;;;;;16.17;6.90;;;1.40;99.90;;;;;;4981266;28;39535;-76
2024/01/28 08:11:31;;;;;;;14.60;6.17;;;1.40;99.90;;;;;;5280661;23;38622;-78
2024/01/28 08:14:00;;;;;;;9.73;5.80;;;1.50;99.90;;;;;;4978080;28;38479;-80
2024/01/28 08:22:15;;;;;;;13.13;5.83;;;1.60;99.90;;;;;;4974069;28;38798;-81
2024/01/28 08:24:55;;;;;;;13.57;5.40;;;1.60;99.90;;;;;;4980466;28;39909;-81
2024/01/28 08:27:22;;;;;;;14.80;6.50;;;1.60;99.90;;;;;;4960045;28;35819;-80
2024/01/28 08:29:51;;;;;;;14.50;6.80;;;1.50;99.90;;;;;;4957332;28;39285;-81
2024/01/28 08:34:57;;;;;;;14.43;6.33;;;1.50;99.90;;;;;;5011121;28;20039;-80
2024/01/28 08:37:29;;;;;;;9.97;5.90;;;1.60;99.90;;;;;;4996791;28;37554;-81
2024/01/28 08:40:15;;;;;;;15.68;6.38;;;1.60;99.90;;;;;;5001462;28;42384;-81
2024/01/28 08:43:09;;;;;;;13.63;6.70;;;1.70;99.90;;;;;;4966667;28;48622;-82
2024/01/28 08:45:42;;;;;;;12.43;5.57;;;1.70;99.90;;;;;;5824880;22;45075;-80
2024/01/28 08:48:08;;;;;;;13.32;6.28;;;1.80;99.90;;;;;;5049928;28;38534;-79
2024/01/28 08:51:05;;;;;;;13.33;6.20;;;1.90;99.90;;;;;;5022400;28;38096;-81
2024/01/28 08:53:31;;;;;;;12.73;6.07;;;2.00;99.90;;;;;;5007236;28;48764;-80
2024/01/28 08:56:03;;;;;;;14.10;6.37;;;1.90;99.90;;;;;;5054332;28;38310;-80
2024/01/28 08:58:46;;;;;;;11.80;4.82;;;2.00;99.90;;;;;;5016926;28;48858;-81
2024/01/28 09:01:15;;;;;;;23.60;7.15;;;2.00;99.90;;;;;;5035993;28;38393;-80
2024/01/28 09:03:41;;;;;;;16.50;6.77;;;2.10;99.90;;;;;;5018460;28;39194;-77
2024/01/28 09:06:22;;;;;;;32.87;8.07;;;2.20;99.90;;;;;;5040905;28;36869;-81
2024/01/28 09:08:57;;;;;;;52.13;9.40;;;2.30;99.90;;;;;;5069078;28;38657;-80
2024/01/28 09:11:23;;;;;;;47.27;10.93;;;2.40;96.20;;;;;;5037967;28;37864;-80
2024/01/28 09:13:59;;;;;;;23.07;8.53;;;2.50;92.50;;;;;;5134234;23;38845;-81
2024/01/28 09:16:31;;;;;;;42.47;8.73;;;2.50;89.40;;;;;;5004488;28;38940;-79
2024/01/28 09:18:57;;;;;;;40.25;9.77;;;2.60;75.20;;;;;;5002369;28;37426;-79
2024/01/28 09:21:23;;;;;;;45.20;12.03;;;2.80;67.10;;;;;;4999456;28;37992;-79
2024/01/28 09:23:50;;;;;;;29.17;7.80;;;2.80;58.80;;;;;;5017671;28;38347;-81
2024/01/28 09:26:39;;;;;;;40.10;9.20;;;2.90;59.90;;;;;;5007531;28;37040;-80
2024/01/28 09:29:07;;;;;;;39.87;8.93;;;3.00;59.30;;;;;;5024005;28;38596;-78
2024/01/28 09:31:38;;;;;;;14.53;6.47;;;3.00;54.60;;;;;;5023804;28;37685;-80
2024/01/28 09:34:05;;;;;;;16.10;6.40;;;3.10;55.20;;;;;;4994215;28;37516;-80
2024/01/28 09:36:35;;;;;;;11.30;5.53;;;3.10;56.10;;;;;;5029261;28;38306;-80
2024/01/28 09:39:02;;;;;;;30.33;7.90;;;3.10;48.10;;;;;;5022465;28;36383;-81
2024/01/28 09:42:24;;;;;;;25.97;7.67;;;3.30;32.90;;;;;;5013413;28;38817;-82
2024/01/28 09:44:50;;;;;;;10.83;5.73;;;3.30;44.60;;;;;;5016432;28;49384;-78
2024/01/28 09:49:55;;;;;;;10.27;5.57;;;3.50;26.00;;;;;;5199993;22;20204;-81
2024/01/28 09:52:22;;;;;;;11.83;5.50;;;3.50;34.00;;;;;;5035222;28;37666;-82
2024/01/28 09:54:50;;;;;;;15.07;5.93;;;3.60;23.60;;;;;;5014657;28;40256;-81
2024/01/28 09:57:24;;;;;;;9.80;5.43;;;3.60;29.10;;;;;;5010562;28;39153;-81
2024/01/28 09:59:51;;;;;;;30.60;7.23;;;3.70;25.60;;;;;;5016952;28;40543;-79
2024/01/28 10:02:18;;;;;;;34.33;8.37;;;3.80;10.90;;;;;;5014054;28;38138;-81
2024/01/28 10:04:55;;;;;;;23.90;7.60;;;3.90;10.40;;;;;;5037856;28;37389;-82
2024/01/28 10:08:09;;;;;;;50.67;9.17;;;3.90;14.20;;;;;;5038310;28;39740;-81
2024/01/28 10:11:20;;;;;;;54.10;10.53;;;4.00;6.00;;;;;;4996318;28;50043;-81
2024/01/28 10:13:46;;;;;;;27.10;7.80;;;4.10;4.20;;;;;;5015073;28;49850;-81
2024/01/28 10:16:15;;;;;;;28.37;7.83;;;4.20;1.00;;;;;;5036965;28;37762;-81
2024/01/28 10:26:38;;;;;;;24.37;6.50;;;4.50;1.00;;;;;;5011924;28;20051;-82
2024/01/28 10:31:50;;;;;;;14.37;5.67;;;4.60;1.00;;;;;;5198675;22;20100;-80
2024/01/28 10:34:59;;;;;;;;;;;;;;;;;;;;;
2024/01/28 10:37:32;;;;;;;13.50;5.17;;;4.80;1.00;;;;;;5041841;28;39118;-79
2024/01/28 10:40:34;;;;;;;12.13;5.47;;;4.90;1.00;;;;;;5044279;28;38568;-81
2024/01/28 10:44:05;;;;;;;10.80;5.40;;;4.90;1.00;;;;;;5027783;28;38509;-81
2024/01/28 10:57:44;;;;;;;9.73;4.90;;;5.40;1.00;;;;;;4145621;26;20047;-79
2024/01/28 11:00:14;;;;;;;9.47;4.93;;;5.50;1.00;;;;;;5026966;28;39138;-80
2024/01/28 11:02:45;;;;;;;10.73;5.30;;;5.60;1.00;;;;;;4985906;28;38655;-80
2024/01/28 11:05:21;;;;;;;11.27;5.37;;;5.70;1.00;;;;;;5012916;28;39708;-81
2024/01/28 11:10:46;;;;;;;8.03;4.77;;;5.90;1.00;;;;;;5246342;22;20026;-79
2024/01/28 11:14:12;;;;;;;11.30;5.00;;;6.00;1.00;;;;;;5186411;22;39283;-79
2024/01/28 11:21:56;;;;;;;11.57;5.57;;;6.40;1.00;;;;;;5513255;22;20054;-80
2024/01/28 11:32:41;;;;;;;10.77;4.50;;;6.70;1.00;;;;;;5742863;22;20037;-80
2024/01/28 11:36:02;;;;;;;8.57;4.63;;;6.80;1.00;;;;;;5002597;28;38675;-80
2024/01/28 12:03:58;;;;;;;8.23;4.23;;;7.40;1.00;;;;;;6055054;22;19916;-80
2024/01/28 12:06:28;;;;;;;8.73;4.50;;;7.40;1.00;;;;;;5060651;28;39722;-79
2024/01/28 12:56:27;;;;;;;5.97;2.93;;;8.90;1.00;;;;;;5701035;22;20404;-78
2024/01/28 13:17:05;;;;;;;4.37;3.00;;;8.80;1.00;;;;;;5744524;22;20675;-77
2024/01/28 13:19:31;;;;;;;6.23;3.03;;;8.80;1.00;;;;;;5010338;28;37684;-77
2024/01/28 13:24:33;;;;;;;5.80;2.77;;;8.70;1.00;;;;;;5773082;22;20038;-78
2024/01/28 13:50:29;;;;;;;7.40;3.77;;;8.80;1.00;;;;;;5007988;27;3433881;-85
2024/01/28 13:52:56;;;;;;;5.60;3.27;;;9.00;1.00;;;;;;5129589;27;20039;-84
2024/01/28 13:55:26;;;;;;;8.87;3.30;;;9.00;1.00;;;;;;5120714;27;38386;-84
2024/01/28 13:57:53;;;;;;;7.93;3.50;;;9.00;1.00;;;;;;5123726;27;38075;-84
2024/01/28 14:00:23;;;;;;;5.87;3.30;;;8.90;1.00;;;;;;5128262;27;38410;-83
2024/01/28 14:02:53;;;;;;;5.73;2.93;;;8.90;1.00;;;;;;5123642;27;48374;-84
2024/01/28 14:05:19;;;;;;;6.60;3.33;;;9.00;1.00;;;;;;5127197;27;37251;-83
2024/01/28 14:07:48;;;;;;;7.80;3.83;;;9.00;1.00;;;;;;5119992;27;37682;-84
2024/01/28 14:10:15;;;;;;;10.30;3.97;;;9.00;1.00;;;;;;5103917;27;37533;-84
2024/01/28 14:12:46;;;;;;;7.60;4.00;;;9.00;1.00;;;;;;5116128;27;38234;-83
2024/01/28 14:15:14;;;;;;;6.90;3.87;;;8.90;1.00;;;;;;5115783;27;36477;-84
2024/01/28 14:17:42;;;;;;;6.43;3.63;;;8.90;1.00;;;;;;5118980;27;38501;-84
2024/01/28 14:20:12;;;;;;;6.53;3.70;;;8.90;1.00;;;;;;5107595;27;36998;-84
2024/01/28 14:22:39;;;;;;;6.37;3.70;;;8.90;1.00;;;;;;5120826;27;37998;-85
2024/01/28 14:25:11;;;;;;;10.23;3.60;;;8.90;1.00;;;;;;5123053;27;36148;-86
2024/01/28 14:27:48;;;;;;;12.35;3.47;;;9.00;1.00;;;;;;5140483;27;38168;-82
2024/01/28 14:30:14;;;;;;;5.67;3.70;;;9.00;1.00;;;;;;5112625;27;39425;-84
2024/01/28 14:32:41;;;;;;;6.60;3.83;;;9.10;1.00;;;;;;5094974;27;37918;-85
2024/01/28 14:35:07;;;;;;;7.37;3.50;;;9.10;1.00;;;;;;5120021;27;36624;-86
2024/01/28 14:37:34;;;;;;;6.67;3.73;;;9.20;1.00;;;;;;5130520;27;37579;-86
2024/01/28 14:40:01;;;;;;;6.97;3.93;;;9.20;1.00;;;;;;5125693;27;37494;-85
2024/01/28 14:42:27;;;;;;;6.43;4.00;;;9.30;1.00;;;;;;5138651;27;36512;-84
2024/01/28 14:44:54;;;;;;;7.70;3.53;;;9.30;1.00;;;;;;5122481;27;38740;-85
2024/01/28 14:47:20;;;;;;;9.10;4.50;;;9.30;1.00;;;;;;5137792;27;37919;-83
2024/01/28 14:49:48;;;;;;;9.77;4.23;;;9.40;1.00;;;;;;5119987;27;38032;-84
2024/01/28 14:52:14;;;;;;;5.20;4.00;;;9.40;1.00;;;;;;5104973;27;37181;-84
2024/01/28 14:54:44;;;;;;;7.07;3.73;;;9.40;1.00;;;;;;5109959;27;36010;-85
2024/01/28 14:57:11;;;;;;;7.50;3.33;;;9.40;1.00;;;;;;5119949;27;38774;-85
2024/01/28 14:59:38;;;;;;;7.83;3.30;;;9.30;1.00;;;;;;5103789;27;38718;-85
2024/01/28 15:02:10;;;;;;;5.27;3.13;;;9.30;1.00;;;;;;5100218;27;36470;-85
2024/01/28 15:08:21;;;;;;;6.33;3.90;;;9.20;1.00;;;;;;5081063;27;48601;-84
2024/01/28 15:13:42;;;;;;;11.47;3.70;;;9.10;1.00;;;;;;5063904;28;48867;-84
2024/01/28 15:16:08;;;;;;;4.73;3.00;;;9.00;1.00;;;;;;5100024;27;35749;-85
2024/01/28 15:18:39;;;;;;;10.53;3.73;;;8.90;1.00;;;;;;5106544;27;37747;-85
2024/01/28 15:21:07;;;;;;;9.90;3.60;;;8.90;1.00;;;;;;5104775;27;38652;-85
2024/01/28 15:23:41;;;;;;;8.73;3.93;;;8.90;1.00;;;;;;5122219;27;37999;-85
2024/01/28 15:26:08;;;;;;;8.47;4.03;;;8.90;1.00;;;;;;5105543;27;35946;-85
2024/01/28 15:28:34;;;;;;;11.07;4.57;;;8.80;1.00;;;;;;5104213;27;37451;-85
2024/01/28 15:31:00;;;;;;;9.80;4.17;;;8.80;1.00;;;;;;5107394;27;38186;-86
2024/01/28 15:33:27;;;;;;;10.80;5.63;;;8.70;1.00;;;;;;5122580;27;47271;-86
2024/01/28 15:36:04;;;;;;;12.87;6.50;;;8.70;1.00;;;;;;5116651;27;36110;-84
2024/01/28 15:38:33;;;;;;;9.73;4.97;;;8.60;1.00;;;;;;5102289;27;47146;-84
2024/01/28 15:41:00;;;;;;;6.13;3.90;;;8.60;1.00;;;;;;5104727;27;37555;-85
2024/01/28 15:43:26;;;;;;;9.20;5.63;;;8.60;1.00;;;;;;5104911;27;37094;-85
2024/01/28 15:45:52;;;;;;;10.57;5.33;;;8.50;1.00;;;;;;5105497;27;36310;-84
2024/01/28 15:48:23;;;;;;;15.73;8.80;;;8.50;1.00;;;;;;5103131;27;40446;-85
2024/01/28 15:50:49;;;;;;;12.33;7.60;;;8.40;1.00;;;;;;5119337;27;38315;-85
2024/01/28 15:53:16;;;;;;;12.07;6.73;;;8.30;1.00;;;;;;5099016;27;37922;-84
2024/01/28 15:55:43;;;;;;;14.07;6.70;;;8.30;1.00;;;;;;5088480;27;38618;-84
2024/01/28 15:58:14;;;;;;;13.00;6.97;;;8.20;1.00;;;;;;5093160;27;38825;-84
2024/01/28 16:00:40;;;;;;;9.70;5.53;;;8.10;1.00;;;;;;5100036;27;37076;-86
2024/01/28 16:03:08;;;;;;;9.97;5.30;;;8.10;1.00;;;;;;5097509;27;37464;-85
2024/01/28 16:05:34;;;;;;;7.93;5.37;;;8.10;1.00;;;;;;5108973;27;35947;-85